Time;durP1;ratioP1;P1;durP2;ratioP2;P2;SDS_P1;SDS_P2;PMS_P1;PMS_P2;Temp;Humidity;BMP_temperature;BMP_pressure;BME280_temperature;BME280_humidity;BME280_pressure;Samples;Min_cycle;Max_cycle;Signal;HPM_P1;HPM_P2
2022/08/27 00:00:12;;;;;;;5.82;0.60;;;18.30;99.90;;;;;;5070281;28;20081;-46
2022/08/27 00:02:38;;;;;;;5.45;0.90;;;18.20;99.90;;;;;;5085642;28;20145;-46
2022/08/27 00:05:04;;;;;;;2.58;0.90;;;18.20;99.90;;;;;;5069937;28;20064;-46
2022/08/27 00:07:29;;;;;;;3.05;0.70;;;18.20;99.90;;;;;;5070433;28;20172;-46
2022/08/27 00:09:55;;;;;;;6.88;0.65;;;18.20;99.90;;;;;;5070325;28;20123;-46
2022/08/27 00:12:21;;;;;;;6.07;0.50;;;18.10;99.90;;;;;;5070222;28;20045;-46
2022/08/27 00:14:47;;;;;;;6.15;1.13;;;18.10;99.90;;;;;;5070083;28;20037;-47
2022/08/27 00:17:13;;;;;;;3.63;0.77;;;18.10;99.90;;;;;;5051995;28;20047;-46
2022/08/27 00:19:39;;;;;;;6.28;0.65;;;18.10;99.90;;;;;;5050326;28;20056;-46
2022/08/27 00:22:06;;;;;;;6.10;0.85;;;18.10;99.90;;;;;;5050196;28;20074;-46
2022/08/27 00:24:32;;;;;;;2.85;0.50;;;18.10;99.90;;;;;;5049858;28;20037;-45
2022/08/27 00:26:58;;;;;;;6.00;1.30;;;18.10;99.90;;;;;;5049825;28;20402;-47
2022/08/27 00:29:25;;;;;;;4.72;1.00;;;18.00;99.90;;;;;;5050001;28;20045;-47
2022/08/27 00:31:51;;;;;;;2.42;0.60;;;18.10;99.90;;;;;;5049922;28;20417;-46
2022/08/27 00:34:17;;;;;;;4.38;0.70;;;18.00;99.90;;;;;;5058899;28;20070;-46
2022/08/27 00:36:44;;;;;;;7.68;0.93;;;18.00;99.90;;;;;;5069861;28;20492;-45
2022/08/27 00:39:10;;;;;;;3.97;0.77;;;17.90;99.90;;;;;;5069911;28;20402;-46
2022/08/27 00:41:37;;;;;;;2.45;0.93;;;17.90;99.90;;;;;;5069779;28;20060;-46
2022/08/27 00:44:05;;;;;;;3.20;0.88;;;17.90;99.90;;;;;;5068745;28;20045;-46
2022/08/27 00:46:50;;;;;;;2.80;0.65;;;17.80;99.90;;;;;;5059120;28;20041;-46
2022/08/27 00:49:22;;;;;;;4.22;0.70;;;17.80;99.90;;;;;;5048715;28;20056;-46
2022/08/27 00:52:00;;;;;;;4.75;0.68;;;17.90;99.90;;;;;;5049723;28;20509;-47
2022/08/27 00:54:26;;;;;;;3.53;0.50;;;17.80;99.90;;;;;;5049286;28;20124;-46
2022/08/27 00:56:53;;;;;;;5.05;0.55;;;17.80;99.90;;;;;;5049632;28;20111;-46
2022/08/27 00:59:23;;;;;;;5.25;0.95;;;17.70;99.90;;;;;;5049972;28;20598;-46
2022/08/27 01:04:34;;;;;;;3.85;0.80;;;17.80;99.90;;;;;;5069632;28;20120;-46
2022/08/27 01:07:01;;;;;;;6.55;1.80;;;17.70;99.90;;;;;;5069239;28;20052;-46
2022/08/27 01:09:27;;;;;;;4.95;0.68;;;17.70;99.90;;;;;;5070063;28;20059;-46
2022/08/27 01:11:54;;;;;;;;;;;17.60;99.90;;;;;;5070305;28;20071;-47
2022/08/27 01:14:20;;;;;;;3.10;0.80;;;17.60;99.90;;;;;;5069650;28;19972;-46
2022/08/27 01:16:53;;;;;;;3.97;1.25;;;17.50;99.90;;;;;;5072890;28;20037;-46
2022/08/27 01:19:50;;;;;;;5.80;1.02;;;17.50;99.90;;;;;;5073552;28;20437;-46
2022/08/27 01:22:21;;;;;;;8.88;1.50;;;17.50;99.90;;;;;;5073550;28;20040;-46
2022/08/27 01:24:49;;;;;;;4.93;1.13;;;17.40;99.90;;;;;;5073205;28;20041;-46
2022/08/27 01:27:18;;;;;;;4.57;0.93;;;17.40;99.90;;;;;;5073532;28;20128;-46
2022/08/27 01:29:44;;;;;;;3.70;0.82;;;17.40;99.90;;;;;;5073230;28;20043;-47
2022/08/27 01:32:20;;;;;;;2.20;0.70;;;17.40;99.90;;;;;;5072771;28;20120;-47
2022/08/27 01:34:46;;;;;;;6.20;1.30;;;17.30;99.90;;;;;;5073089;28;20132;-47
2022/08/27 01:37:13;;;;;;;5.63;1.20;;;17.30;99.90;;;;;;5072956;28;20052;-46
2022/08/27 01:39:40;;;;;;;6.05;1.13;;;17.30;99.90;;;;;;5072863;28;20446;-46
2022/08/27 01:42:26;;;;;;;5.30;0.73;;;17.30;99.90;;;;;;5073040;28;20040;-47
2022/08/27 01:44:55;;;;;;;3.67;0.88;;;17.20;99.90;;;;;;5072403;28;20052;-46
2022/08/27 01:47:22;;;;;;;4.20;0.50;;;17.20;99.90;;;;;;5072920;28;20090;-47
2022/08/27 01:49:49;;;;;;;5.10;0.88;;;17.20;99.90;;;;;;5072737;28;20040;-46
2022/08/27 01:52:18;;;;;;;5.25;1.02;;;17.10;99.90;;;;;;5072808;28;20125;-46
2022/08/27 01:54:44;;;;;;;4.20;0.93;;;17.20;99.90;;;;;;5072434;28;20032;-46
2022/08/27 01:57:11;;;;;;;2.65;1.25;;;17.10;99.90;;;;;;5072315;28;20043;-45
2022/08/27 01:59:36;;;;;;;;;;;17.00;99.90;;;;;;5073208;28;20082;-46
2022/08/27 02:02:02;;;;;;;2.72;0.77;;;17.00;99.90;;;;;;5073050;28;19999;-46
2022/08/27 02:04:29;;;;;;;1.85;0.63;;;17.00;99.90;;;;;;5072331;28;20048;-46
2022/08/27 02:06:56;;;;;;;2.83;1.05;;;17.00;99.90;;;;;;5072486;28;20041;-47
2022/08/27 02:09:22;;;;;;;4.72;0.93;;;17.00;99.90;;;;;;5072855;28;20072;-46
2022/08/27 02:11:47;;;;;;;11.05;1.73;;;17.00;99.90;;;;;;5072233;28;20076;-46
2022/08/27 02:14:14;;;;;;;5.82;1.33;;;17.00;99.90;;;;;;5071836;28;20055;-46
2022/08/27 02:16:40;;;;;;;4.55;1.08;;;17.10;99.90;;;;;;5072413;28;20058;-46
2022/08/27 02:19:06;;;;;;;5.13;1.08;;;17.10;99.90;;;;;;5072273;28;20037;-46
2022/08/27 02:21:33;;;;;;;4.70;1.23;;;17.10;99.90;;;;;;5072344;28;20051;-46
2022/08/27 02:23:59;;;;;;;5.05;1.00;;;17.10;99.90;;;;;;5071680;28;20041;-46
2022/08/27 02:26:26;;;;;;;4.57;0.75;;;17.10;99.90;;;;;;5071837;28;20102;-46
2022/08/27 02:28:52;;;;;;;4.35;1.30;;;17.10;99.90;;;;;;5072353;28;20040;-46
2022/08/27 02:31:18;;;;;;;3.70;1.35;;;17.10;99.90;;;;;;5072472;28;20066;-46
2022/08/27 02:33:43;;;;;;;5.13;1.40;;;17.10;99.90;;;;;;5071722;28;20051;-46
2022/08/27 02:36:09;;;;;;;3.58;1.33;;;17.10;99.90;;;;;;5072329;28;20047;-46
2022/08/27 02:38:35;;;;;;;6.38;1.13;;;17.10;99.90;;;;;;5066803;28;20029;-46
2022/08/27 02:41:01;;;;;;;4.75;1.15;;;17.10;99.90;;;;;;5051931;28;20041;-46
2022/08/27 02:43:27;;;;;;;5.82;1.40;;;17.10;99.90;;;;;;5051650;28;20041;-46
2022/08/27 02:45:52;;;;;;;4.53;1.13;;;17.10;99.90;;;;;;5051681;28;20123;-45
2022/08/27 02:48:19;;;;;;;4.20;1.00;;;17.10;99.90;;;;;;5057774;28;20121;-47
2022/08/27 02:50:45;;;;;;;3.03;0.73;;;17.20;99.90;;;;;;5070722;28;20124;-47
2022/08/27 02:53:11;;;;;;;4.47;1.27;;;17.10;99.90;;;;;;5070487;28;20044;-47
2022/08/27 02:55:37;;;;;;;3.40;0.95;;;17.20;99.90;;;;;;5071185;28;20143;-46
2022/08/27 02:58:03;;;;;;;4.45;1.15;;;17.10;99.90;;;;;;5071381;28;20112;-46
2022/08/27 03:00:29;;;;;;;5.25;0.65;;;17.10;99.90;;;;;;5070825;28;20086;-47
2022/08/27 03:02:55;;;;;;;4.70;1.25;;;17.10;99.90;;;;;;5071106;28;20045;-45
2022/08/27 03:05:22;;;;;;;4.95;1.00;;;17.10;99.90;;;;;;5071083;28;20494;-46
2022/08/27 03:07:48;;;;;;;3.38;0.65;;;17.10;99.90;;;;;;5071085;28;20055;-46
2022/08/27 03:10:16;;;;;;;3.03;1.08;;;17.10;99.90;;;;;;5058368;28;20075;-46
2022/08/27 03:12:43;;;;;;;3.13;0.82;;;17.10;99.90;;;;;;5051294;28;20037;-47
2022/08/27 03:15:10;;;;;;;;;;;17.10;99.90;;;;;;5067311;28;20071;-46
2022/08/27 03:20:20;;;;;;;3.40;0.75;;;17.00;99.90;;;;;;5050724;28;20049;-45
2022/08/27 03:22:46;;;;;;;4.90;0.70;;;17.00;99.90;;;;;;5066588;28;20125;-46
2022/08/27 03:25:12;;;;;;;1.75;0.60;;;17.00;99.90;;;;;;5071219;28;20040;-46
2022/08/27 03:27:38;;;;;;;2.22;0.55;;;17.00;99.90;;;;;;5070920;28;20395;-46
2022/08/27 03:30:09;;;;;;;;;;;17.00;99.90;;;;;;5071345;28;20068;-45
2022/08/27 03:32:35;;;;;;;4.40;1.02;;;17.00;99.90;;;;;;5070724;28;20430;-46
2022/08/27 03:35:01;;;;;;;3.88;0.90;;;17.00;99.90;;;;;;5070264;28;20115;-46
2022/08/27 03:37:27;;;;;;;5.82;0.88;;;17.00;99.90;;;;;;5070887;28;20385;-45
2022/08/27 03:39:53;;;;;;;2.42;0.70;;;17.00;99.90;;;;;;5070301;28;20047;-46
2022/08/27 03:42:20;;;;;;;4.32;0.95;;;17.00;99.90;;;;;;5070354;28;20398;-45
2022/08/27 03:44:46;;;;;;;6.93;1.13;;;17.00;99.90;;;;;;5070702;28;20314;-46
2022/08/27 03:47:11;;;;;;;5.28;0.85;;;16.90;99.90;;;;;;5070365;28;20036;-47
2022/08/27 03:49:37;;;;;;;2.05;0.80;;;16.90;99.90;;;;;;5070176;28;20139;-47
2022/08/27 03:52:03;;;;;;;4.60;0.90;;;16.80;99.90;;;;;;5070784;28;20473;-46
2022/08/27 03:54:30;;;;;;;8.10;0.77;;;16.80;99.90;;;;;;5070586;28;20432;-45
2022/08/27 03:56:55;;;;;;;4.10;0.73;;;16.80;99.90;;;;;;5070758;28;20033;-46
2022/08/27 03:59:21;;;;;;;3.35;1.15;;;16.80;99.90;;;;;;5054379;28;20055;-46
2022/08/27 04:01:46;;;;;;;3.35;0.80;;;16.70;99.90;;;;;;5050481;28;20037;-46
2022/08/27 04:04:12;;;;;;;4.22;0.82;;;16.70;99.90;;;;;;5049699;28;20041;-46
2022/08/27 04:06:37;;;;;;;1.88;0.68;;;16.70;99.90;;;;;;5055397;28;20044;-46
2022/08/27 04:09:04;;;;;;;3.80;1.15;;;16.70;99.90;;;;;;5070322;28;20435;-46
2022/08/27 04:11:29;;;;;;;5.32;0.90;;;16.60;99.90;;;;;;5070154;28;20379;-46
2022/08/27 04:13:55;;;;;;;4.65;0.77;;;16.60;99.90;;;;;;5069178;28;20094;-46
2022/08/27 04:16:21;;;;;;;7.07;1.05;;;16.60;99.90;;;;;;5069825;28;20028;-48
2022/08/27 04:18:46;;;;;;;6.10;0.90;;;16.60;99.90;;;;;;5068261;28;20402;-46
2022/08/27 04:21:14;;;;;;;4.95;1.08;;;16.60;99.90;;;;;;5070568;28;20394;-46
2022/08/27 04:23:41;;;;;;;4.70;1.15;;;16.50;99.90;;;;;;5069465;28;20078;-46
2022/08/27 04:26:08;;;;;;;3.90;1.25;;;16.50;99.90;;;;;;5050329;28;20575;-46
2022/08/27 04:28:34;;;;;;;5.05;0.90;;;16.50;99.90;;;;;;5050168;28;20044;-46
2022/08/27 04:31:02;;;;;;;3.90;0.70;;;16.40;99.90;;;;;;5050409;28;20135;-46
2022/08/27 04:33:29;;;;;;;4.57;0.98;;;16.40;99.90;;;;;;5049782;28;20045;-46
2022/08/27 04:36:03;;;;;;;5.43;1.00;;;16.50;99.90;;;;;;5066909;28;20097;-46
2022/08/27 04:38:29;;;;;;;2.00;1.10;;;16.50;99.90;;;;;;5069902;28;20040;-46
2022/08/27 04:43:39;;;;;;;2.97;1.08;;;16.40;99.90;;;;;;5069232;28;20045;-46
2022/08/27 04:46:05;;;;;;;2.42;0.70;;;16.40;99.90;;;;;;5069742;28;20450;-46
2022/08/27 04:48:31;;;;;;;3.90;0.88;;;16.40;99.90;;;;;;5069972;28;20052;-45
2022/08/27 04:50:57;;;;;;;7.25;1.77;;;16.40;99.90;;;;;;5071569;28;20063;-46
2022/08/27 04:53:22;;;;;;;4.93;0.75;;;16.30;99.90;;;;;;5073537;28;20498;-47
2022/08/27 04:55:51;;;;;;;3.50;1.10;;;16.30;99.90;;;;;;5074004;28;20537;-46
2022/08/27 04:58:18;;;;;;;6.18;1.20;;;16.30;99.90;;;;;;5073346;28;20064;-45
2022/08/27 05:00:47;;;;;;;3.40;0.98;;;16.30;99.90;;;;;;5074133;28;20041;-46
2022/08/27 05:03:14;;;;;;;2.25;0.75;;;16.30;99.90;;;;;;5073696;28;20420;-45
2022/08/27 05:05:43;;;;;;;8.48;1.23;;;16.30;99.90;;;;;;5073821;28;20054;-46
2022/08/27 05:08:11;;;;;;;5.95;1.10;;;16.30;99.90;;;;;;5073503;28;20502;-45
2022/08/27 05:10:49;;;;;;;3.17;1.08;;;16.20;99.90;;;;;;5071678;28;20520;-46
2022/08/27 05:13:20;;;;;;;8.02;1.52;;;16.20;99.90;;;;;;5053529;28;20250;-46
2022/08/27 05:15:46;;;;;;;8.50;1.00;;;16.20;99.90;;;;;;5053723;28;20110;-46
2022/08/27 05:18:12;;;;;;;;;;;16.20;99.90;;;;;;5060750;28;20033;-45
2022/08/27 05:20:46;;;;;;;5.07;0.80;;;16.20;99.90;;;;;;5073484;28;20274;-48
2022/08/27 05:23:12;;;;;;;3.28;1.05;;;16.20;99.90;;;;;;5072566;28;20060;-45
2022/08/27 05:25:43;;;;;;;2.72;0.63;;;16.20;99.90;;;;;;5055450;28;20521;-46
2022/08/27 05:28:09;;;;;;;3.60;1.05;;;16.20;99.90;;;;;;5058260;28;20036;-45
2022/08/27 05:30:47;;;;;;;5.07;0.50;;;16.20;99.90;;;;;;5073506;28;20036;-45
2022/08/27 05:33:16;;;;;;;3.75;0.90;;;16.30;99.90;;;;;;5072954;28;20044;-46
2022/08/27 05:35:43;;;;;;;4.28;0.60;;;16.30;99.90;;;;;;5072758;28;20524;-46
2022/08/27 05:38:09;;;;;;;3.30;0.93;;;16.30;99.90;;;;;;5073173;28;20040;-46
2022/08/27 05:40:37;;;;;;;2.67;0.73;;;16.40;99.90;;;;;;5066037;28;20048;-46
2022/08/27 05:43:04;;;;;;;5.07;0.70;;;16.50;99.90;;;;;;5052489;28;20076;-47
2022/08/27 05:45:30;;;;;;;5.53;0.90;;;16.50;99.90;;;;;;5051711;28;20044;-47
2022/08/27 05:47:56;;;;;;;1.33;0.60;;;16.60;99.90;;;;;;5050669;28;20048;-47
2022/08/27 05:50:21;;;;;;;6.93;0.80;;;16.60;99.90;;;;;;5051188;28;20112;-46
2022/08/27 05:52:47;;;;;;;5.20;0.55;;;16.70;99.90;;;;;;5051624;28;20148;-46
2022/08/27 05:55:12;;;;;;;10.95;0.90;;;16.80;99.90;;;;;;5051594;28;20033;-46
2022/08/27 05:57:38;;;;;;;2.30;0.50;;;16.80;99.90;;;;;;5051663;28;20051;-46
2022/08/27 06:02:49;;;;;;;4.78;1.00;;;16.90;99.90;;;;;;5050594;28;20049;-46
2022/08/27 06:05:15;;;;;;;5.47;0.77;;;17.10;99.90;;;;;;5051373;28;20041;-46
2022/08/27 06:07:40;;;;;;;7.13;0.82;;;17.10;99.90;;;;;;5051664;28;20056;-46
2022/08/27 06:10:06;;;;;;;8.30;0.50;;;17.20;99.90;;;;;;5051581;28;20033;-46
2022/08/27 06:12:33;;;;;;;;;;;17.20;99.90;;;;;;5051822;28;20391;-47
2022/08/27 06:14:59;;;;;;;2.33;0.50;;;17.30;99.90;;;;;;5051413;28;19916;-46
2022/08/27 06:17:24;;;;;;;5.15;1.02;;;17.30;99.90;;;;;;5059713;28;20719;-47
2022/08/27 06:19:50;;;;;;;3.03;0.50;;;17.40;99.90;;;;;;5071602;28;20047;-45
2022/08/27 06:22:15;;;;;;;2.83;0.80;;;17.60;99.90;;;;;;5071190;28;20131;-45
2022/08/27 06:24:42;;;;;;;5.03;1.05;;;17.70;99.90;;;;;;5071079;28;20095;-46
2022/08/27 06:27:11;;;;;;;3.05;0.60;;;17.80;99.90;;;;;;5056381;28;20041;-46
2022/08/27 06:29:37;;;;;;;4.65;0.45;;;17.90;99.90;;;;;;5065785;28;20064;-46
2022/08/27 06:32:03;;;;;;;3.78;0.68;;;18.00;99.90;;;;;;5050527;28;20505;-46
2022/08/27 06:34:28;;;;;;;4.25;1.08;;;18.10;99.90;;;;;;5060765;28;20041;-46
2022/08/27 06:36:55;;;;;;;6.00;0.63;;;18.30;99.90;;;;;;5071006;28;20072;-45
2022/08/27 06:39:20;;;;;;;;;;;18.30;99.90;;;;;;5069865;28;20455;-46
2022/08/27 06:41:46;;;;;;;5.25;0.95;;;18.40;99.90;;;;;;5063036;28;20382;-46
2022/08/27 06:44:13;;;;;;;6.88;0.63;;;18.50;99.90;;;;;;5035340;28;1022080;-47
2022/08/27 06:46:39;;;;;;;10.82;1.08;;;18.50;99.90;;;;;;5070553;28;20405;-46
2022/08/27 06:49:05;;;;;;;3.33;0.63;;;18.60;99.90;;;;;;5070691;28;20036;-46
2022/08/27 06:51:34;;;;;;;5.03;0.60;;;18.70;99.90;;;;;;5070961;28;20046;-47
2022/08/27 06:54:07;;;;;;;8.07;0.57;;;18.80;99.90;;;;;;5071415;28;20054;-48
2022/08/27 06:56:33;;;;;;;3.15;0.80;;;18.90;99.90;;;;;;5071403;28;20036;-47
2022/08/27 06:59:06;;;;;;;4.10;0.77;;;19.00;99.70;;;;;;5057562;28;20448;-47
2022/08/27 07:01:35;;;;;;;16.65;1.25;;;19.10;99.80;;;;;;5051344;28;20049;-47
2022/08/27 07:04:05;;;;;;;7.05;0.80;;;19.20;99.60;;;;;;5049969;28;20087;-46
2022/08/27 07:06:33;;;;;;;3.35;0.50;;;19.20;99.40;;;;;;5052627;28;20447;-45
2022/08/27 07:08:59;;;;;;;3.30;0.60;;;19.20;99.20;;;;;;5070824;28;20033;-46
2022/08/27 07:11:27;;;;;;;4.20;0.70;;;19.20;99.10;;;;;;5071379;28;20505;-46
2022/08/27 07:13:53;;;;;;;20.05;1.70;;;19.20;99.40;;;;;;5069647;28;20040;-47
2022/08/27 07:16:20;;;;;;;;;;;19.30;99.30;;;;;;5071943;28;20048;-47
2022/08/27 07:18:47;;;;;;;;;;;19.40;99.00;;;;;;5070810;28;19916;-47
2022/08/27 07:21:13;;;;;;;6.45;1.05;;;19.50;98.80;;;;;;5051352;28;19939;-46
2022/08/27 07:23:39;;;;;;;4.57;0.60;;;19.60;98.90;;;;;;5051084;28;20537;-46
2022/08/27 07:26:10;;;;;;;3.30;0.55;;;19.70;98.80;;;;;;5069348;28;20171;-46
2022/08/27 07:28:36;;;;;;;5.25;1.02;;;19.70;98.80;;;;;;5070981;28;20049;-46
2022/08/27 07:31:07;;;;;;;7.88;0.73;;;19.80;98.60;;;;;;5069198;28;20040;-49
2022/08/27 07:33:34;;;;;;;5.85;0.45;;;19.90;98.50;;;;;;5070266;28;20089;-47
2022/08/27 07:36:00;;;;;;;3.05;0.65;;;19.90;98.50;;;;;;5070203;28;20046;-46
2022/08/27 07:38:26;;;;;;;2.08;0.50;;;20.00;98.20;;;;;;5070467;28;20123;-47
2022/08/27 07:40:51;;;;;;;;;;;20.10;98.20;;;;;;5071090;28;20032;-47
2022/08/27 07:46:03;;;;;;;3.97;0.70;;;20.20;97.90;;;;;;5069621;28;20041;-47
2022/08/27 07:48:29;;;;;;;6.53;0.60;;;20.30;97.80;;;;;;5070675;28;20048;-47
2022/08/27 07:50:55;;;;;;;5.55;0.68;;;20.40;97.60;;;;;;5070446;28;20467;-49
2022/08/27 07:53:21;;;;;;;9.20;0.80;;;20.50;97.40;;;;;;5068993;28;20051;-46
2022/08/27 07:55:46;;;;;;;;;;;20.60;97.40;;;;;;5071108;28;20112;-47
2022/08/27 07:58:13;;;;;;;18.75;1.25;;;20.70;96.80;;;;;;5070875;28;19916;-46
2022/08/27 08:00:43;;;;;;;8.95;1.45;;;20.80;97.10;;;;;;5070368;28;20455;-47
2022/08/27 08:03:10;;;;;;;7.15;1.10;;;20.90;97.00;;;;;;5070429;28;20498;-47
2022/08/27 08:05:40;;;;;;;9.88;1.40;;;21.00;96.80;;;;;;5070235;28;20047;-47
2022/08/27 08:08:07;;;;;;;3.08;0.50;;;21.10;96.40;;;;;;5070435;28;20052;-49
2022/08/27 08:10:35;;;;;;;4.20;0.40;;;21.20;96.20;;;;;;5070572;28;20411;-47
2022/08/27 08:13:01;;;;;;;6.32;0.63;;;21.30;95.90;;;;;;5070326;28;20051;-47
2022/08/27 08:15:28;;;;;;;5.00;0.50;;;21.30;95.80;;;;;;5070163;28;20447;-47
2022/08/27 08:17:54;;;;;;;3.55;0.88;;;21.30;95.80;;;;;;5069550;28;20064;-47
2022/08/27 08:20:20;;;;;;;6.38;0.88;;;21.40;95.70;;;;;;5069497;28;20050;-49
2022/08/27 08:22:47;;;;;;;;;;;21.50;95.60;;;;;;5070371;28;20045;-49
2022/08/27 08:25:13;;;;;;;4.07;0.60;;;21.60;94.90;;;;;;5069867;28;19963;-47
2022/08/27 08:27:40;;;;;;;3.63;0.30;;;21.50;95.10;;;;;;5069770;28;20095;-47
2022/08/27 08:30:07;;;;;;;4.38;0.40;;;21.60;94.80;;;;;;5069950;28;20036;-47
2022/08/27 08:32:32;;;;;;;4.63;0.40;;;21.60;94.70;;;;;;5069383;28;20047;-47
2022/08/27 08:34:58;;;;;;;;;;;21.80;94.70;;;;;;5069883;28;20052;-47
2022/08/27 08:37:25;;;;;;;4.60;0.90;;;21.90;94.10;;;;;;5069749;28;19928;-47
2022/08/27 08:39:50;;;;;;;7.75;0.60;;;22.00;94.40;;;;;;5068813;28;20040;-49
2022/08/27 08:42:31;;;;;;;;;;;22.00;93.70;;;;;;5067376;28;20051;-47
2022/08/27 08:44:59;;;;;;;3.15;0.40;;;21.90;93.00;;;;;;5066423;28;20301;-47
2022/08/27 08:47:30;;;;;;;4.57;1.45;;;21.90;93.70;;;;;;5069258;28;20165;-48
2022/08/27 08:50:10;;;;;;;7.57;1.00;;;21.80;93.90;;;;;;5069860;28;20040;-48
2022/08/27 08:52:51;;;;;;;5.90;0.85;;;21.60;93.50;;;;;;5070003;28;20064;-47
2022/08/27 08:55:27;;;;;;;4.60;0.40;;;21.50;93.70;;;;;;5069423;28;20082;-47
2022/08/27 08:58:24;;;;;;;4.40;0.30;;;21.50;93.70;;;;;;5069330;28;20041;-49
2022/08/27 09:00:58;;;;;;;1.95;0.40;;;21.40;93.80;;;;;;5064597;28;20271;-47
2022/08/27 09:03:24;;;;;;;5.85;0.40;;;21.40;94.00;;;;;;5067950;28;20047;-47
2022/08/27 09:05:58;;;;;;;11.75;0.60;;;21.40;94.10;;;;;;5069521;28;20131;-47
2022/08/27 09:08:26;;;;;;;4.95;1.20;;;21.40;94.00;;;;;;5049061;28;20498;-47
2022/08/27 09:11:04;;;;;;;1.95;0.47;;;21.40;94.00;;;;;;5049610;28;20033;-48
2022/08/27 09:14:04;;;;;;;8.10;0.90;;;21.40;94.00;;;;;;5049319;28;20132;-48
2022/08/27 09:16:31;;;;;;;5.55;0.82;;;21.40;94.00;;;;;;5031705;28;20071;-47
2022/08/27 09:18:56;;;;;;;6.18;1.30;;;21.30;94.20;;;;;;5069188;28;20051;-47
2022/08/27 09:21:22;;;;;;;;;;;21.30;94.20;;;;;;5068626;28;20409;-47
2022/08/27 09:24:13;;;;;;;8.90;0.68;;;21.30;94.10;;;;;;5068544;28;20399;-47
2022/08/27 09:26:42;;;;;;;4.78;0.47;;;21.20;94.20;;;;;;5058565;28;20032;-47
2022/08/27 09:29:18;;;;;;;9.38;0.93;;;21.20;94.30;;;;;;5069487;28;20505;-47
2022/08/27 09:31:57;;;;;;;8.32;0.77;;;21.20;94.40;;;;;;5069228;28;20094;-51
2022/08/27 09:34:26;;;;;;;5.63;0.50;;;21.10;94.40;;;;;;5068737;28;20037;-51
2022/08/27 09:37:03;;;;;;;5.32;0.95;;;21.20;94.70;;;;;;5070110;28;20035;-52
2022/08/27 09:39:40;;;;;;;4.93;0.50;;;21.20;94.50;;;;;;5061542;28;20059;-52
2022/08/27 09:42:06;;;;;;;7.00;0.80;;;21.20;94.50;;;;;;5060591;28;20041;-52
2022/08/27 09:44:43;;;;;;;7.20;1.17;;;21.20;94.40;;;;;;5072684;28;20063;-53
2022/08/27 09:47:14;;;;;;;12.95;0.88;;;21.20;94.40;;;;;;5072681;28;20425;-52
2022/08/27 09:49:40;;;;;;;6.38;0.57;;;21.20;94.40;;;;;;5072901;28;20178;-52
2022/08/27 09:52:05;;;;;;;;;;;21.30;94.10;;;;;;5072699;28;20506;-52
2022/08/27 09:54:46;;;;;;;12.93;0.85;;;21.20;93.60;;;;;;5072318;28;19962;-50
2022/08/27 09:57:25;;;;;;;5.10;0.57;;;21.30;93.90;;;;;;5072602;28;20097;-52
2022/08/27 09:59:53;;;;;;;5.22;0.90;;;21.20;94.00;;;;;;5072527;28;20047;-52
2022/08/27 10:02:21;;;;;;;6.00;0.82;;;21.30;94.20;;;;;;5072164;28;20032;-51
2022/08/27 10:04:49;;;;;;;7.57;1.30;;;21.30;94.10;;;;;;5071992;28;20888;-52
2022/08/27 10:07:21;;;;;;;4.97;0.57;;;21.30;94.10;;;;;;5072395;28;20056;-52
2022/08/27 10:10:01;;;;;;;13.35;0.80;;;21.30;94.10;;;;;;5072481;28;20043;-51
2022/08/27 10:12:35;;;;;;;6.22;0.88;;;21.30;94.30;;;;;;5070763;28;20047;-52
2022/08/27 10:15:04;;;;;;;9.75;1.20;;;21.30;94.10;;;;;;5071477;28;20421;-52
2022/08/27 10:17:35;;;;;;;3.72;0.80;;;21.40;94.30;;;;;;5071761;28;20036;-50
2022/08/27 10:20:13;;;;;;;11.20;1.00;;;21.30;94.20;;;;;;5071770;28;20075;-53
2022/08/27 10:23:23;;;;;;;5.43;0.43;;;21.40;93.70;;;;;;5071807;28;20078;-50
2022/08/27 10:26:11;;;;;;;6.97;0.75;;;21.50;93.10;;;;;;5071470;28;20044;-51
2022/08/27 10:28:52;;;;;;;6.10;0.40;;;21.50;92.80;;;;;;5071457;28;20051;-51
2022/08/27 10:31:30;;;;;;;5.93;0.57;;;21.50;92.70;;;;;;5072180;28;20086;-51
2022/08/27 10:34:16;;;;;;;8.45;0.55;;;21.50;92.70;;;;;;5070954;28;20040;-50
2022/08/27 10:37:03;;;;;;;3.90;0.60;;;21.60;92.50;;;;;;5071751;28;20063;-50
2022/08/27 10:39:48;;;;;;;5.93;0.90;;;21.50;92.70;;;;;;5061167;28;20045;-52
2022/08/27 10:42:18;;;;;;;5.60;0.82;;;21.60;92.50;;;;;;5070840;28;20045;-52
2022/08/27 10:45:19;;;;;;;6.32;0.30;;;21.60;92.70;;;;;;5071682;28;20040;-52
2022/08/27 10:47:47;;;;;;;6.55;0.77;;;21.50;92.30;;;;;;5043091;28;20522;-47
2022/08/27 10:50:32;;;;;;;12.02;0.40;;;21.50;92.40;;;;;;5070401;28;20087;-50
2022/08/27 10:53:10;;;;;;;3.53;0.43;;;21.50;92.40;;;;;;5071132;28;20040;-51
2022/08/27 10:55:50;;;;;;;8.93;0.63;;;21.60;92.60;;;;;;5071440;28;20037;-52
2022/08/27 10:58:40;;;;;;;22.85;1.08;;;21.50;92.70;;;;;;5070103;28;20462;-51
2022/08/27 11:01:35;;;;;;;5.57;0.77;;;21.60;92.90;;;;;;5051815;28;20040;-48
2022/08/27 11:04:10;;;;;;;4.75;0.60;;;21.70;92.60;;;;;;5063939;28;20501;-45
2022/08/27 11:06:43;;;;;;;10.48;0.70;;;21.70;92.70;;;;;;5069324;28;20043;-52
2022/08/27 11:09:20;;;;;;;3.90;0.43;;;21.70;92.50;;;;;;5070218;28;20036;-46
2022/08/27 11:11:56;;;;;;;6.72;1.08;;;21.80;92.40;;;;;;5068907;28;20075;-48
2022/08/27 11:14:32;;;;;;;10.13;1.23;;;21.80;92.50;;;;;;5067824;28;20045;-52
2022/08/27 11:17:12;;;;;;;9.65;0.65;;;21.80;92.60;;;;;;5070542;28;20037;-51
2022/08/27 11:19:53;;;;;;;1.85;0.32;;;21.80;92.10;;;;;;5070188;28;20063;-52
2022/08/27 11:22:33;;;;;;;5.32;0.43;;;21.90;92.30;;;;;;5065202;28;20028;-52
2022/08/27 11:25:07;;;;;;;9.95;0.80;;;21.80;92.20;;;;;;5067861;28;20043;-46
2022/08/27 11:27:34;;;;;;;3.53;0.45;;;21.90;92.10;;;;;;5060719;28;20116;-51
2022/08/27 11:30:11;;;;;;;3.70;0.45;;;21.90;92.00;;;;;;5068883;28;20343;-52
2022/08/27 11:33:07;;;;;;;4.32;0.60;;;21.80;91.90;;;;;;5070199;28;20040;-46
2022/08/27 11:35:48;;;;;;;9.38;0.50;;;21.80;91.80;;;;;;5068972;28;20520;-46
2022/08/27 11:38:29;;;;;;;5.68;0.55;;;21.90;91.80;;;;;;5069809;28;20037;-49
2022/08/27 11:41:23;;;;;;;2.47;0.35;;;21.90;91.60;;;;;;5054491;28;20036;-52
2022/08/27 11:43:50;;;;;;;3.17;0.30;;;22.00;91.20;;;;;;5044730;28;20049;-46
2022/08/27 11:46:36;;;;;;;7.18;0.65;;;22.00;91.40;;;;;;5069939;28;20049;-51
2022/08/27 11:49:03;;;;;;;7.27;0.33;;;22.20;91.30;;;;;;5070314;28;20048;-49
2022/08/27 11:51:33;;;;;;;7.10;0.50;;;22.30;91.30;;;;;;5067192;28;20413;-45
2022/08/27 11:54:24;;;;;;;2.55;0.32;;;22.50;91.20;;;;;;5068671;28;20040;-45
2022/08/27 11:56:51;;;;;;;3.90;0.77;;;22.60;90.90;;;;;;5061110;28;20052;-49
2022/08/27 11:59:22;;;;;;;5.43;0.80;;;22.60;91.10;;;;;;5068965;28;20055;-50
2022/08/27 12:01:51;;;;;;;7.85;0.68;;;22.70;91.00;;;;;;5068075;28;20065;-46
2022/08/27 12:04:35;;;;;;;6.13;0.70;;;22.70;90.70;;;;;;5069094;28;20075;-47
2022/08/27 12:07:23;;;;;;;4.13;0.50;;;22.60;90.70;;;;;;5068638;28;20044;-46
2022/08/27 12:10:08;;;;;;;5.82;0.75;;;22.60;90.40;;;;;;5068908;28;20040;-50
2022/08/27 12:13:01;;;;;;;6.38;0.95;;;22.50;90.60;;;;;;5067177;28;20106;-49
2022/08/27 12:15:50;;;;;;;6.97;0.47;;;22.60;90.70;;;;;;5067128;28;20119;-51
2022/08/27 12:18:43;;;;;;;5.75;0.55;;;22.50;90.60;;;;;;5069216;28;20037;-46
2022/08/27 12:21:25;;;;;;;5.22;0.40;;;22.50;90.50;;;;;;5063423;28;20032;-48
2022/08/27 12:24:18;;;;;;;7.38;0.65;;;22.50;91.00;;;;;;5064533;28;20048;-50
2022/08/27 12:26:58;;;;;;;5.50;0.85;;;22.60;90.60;;;;;;5065891;28;20044;-47
2022/08/27 12:30:01;;;;;;;4.05;0.30;;;22.70;90.70;;;;;;5058199;28;20055;-50
2022/08/27 12:32:39;;;;;;;11.43;1.15;;;23.00;90.30;;;;;;5020483;28;20060;-46
2022/08/27 12:35:22;;;;;;;10.00;0.60;;;23.20;90.40;;;;;;5063409;28;20049;-45
2022/08/27 12:37:54;;;;;;;6.55;0.47;;;23.50;90.10;;;;;;5065526;28;20060;-45
2022/08/27 12:40:28;;;;;;;4.70;0.43;;;23.60;89.10;;;;;;5064991;28;20040;-49
2022/08/27 12:43:09;;;;;;;1.90;0.38;;;23.60;88.20;;;;;;5064920;28;20052;-47
2022/08/27 12:45:44;;;;;;;3.17;0.20;;;23.60;88.20;;;;;;5065074;28;20171;-52
2022/08/27 12:48:10;;;;;;;3.20;0.50;;;23.70;87.70;;;;;;5065632;28;20394;-48
2022/08/27 12:50:37;;;;;;;3.85;0.50;;;23.70;88.00;;;;;;5065035;28;20051;-47
2022/08/27 12:53:44;;;;;;;2.45;0.35;;;23.70;87.70;;;;;;5064739;28;20493;-50
2022/08/27 12:56:28;;;;;;;2.50;0.50;;;23.80;86.60;;;;;;5064814;28;20043;-47
2022/08/27 12:59:22;;;;;;;6.45;0.50;;;23.70;86.60;;;;;;5065389;28;20041;-46
2022/08/27 13:02:14;;;;;;;5.18;0.28;;;23.60;85.50;;;;;;5063901;28;20066;-47
2022/08/27 13:04:42;;;;;;;2.60;0.40;;;23.60;85.60;;;;;;5068420;28;20136;-49
2022/08/27 13:07:08;;;;;;;4.38;0.40;;;23.60;85.70;;;;;;5069420;28;20044;-47
2022/08/27 13:09:36;;;;;;;4.05;0.43;;;23.50;85.10;;;;;;5069526;28;20044;-49
2022/08/27 13:12:13;;;;;;;4.43;0.47;;;23.50;85.70;;;;;;5071059;28;20044;-47
2022/08/27 13:14:39;;;;;;;3.50;0.40;;;23.60;85.90;;;;;;5072515;28;20131;-48
2022/08/27 13:17:14;;;;;;;30.38;2.35;;;23.60;85.80;;;;;;5073409;28;20025;-46
2022/08/27 13:19:49;;;;;;;4.07;0.40;;;23.50;84.70;;;;;;5073018;28;20033;-47
2022/08/27 13:22:30;;;;;;;7.10;0.50;;;23.40;84.30;;;;;;5073303;28;20490;-46